Adjuster:

Seasonal Box Office


INDEX BY QUARTER | INDEX BY YEAR | SEASON-TO-DATE

2015 - 2014 - 2013 - 2012 - 2011 - 2010 - 2009 - 2008 - 2007 - 2006 - 2005 - 2004 - 2003 - 2002 - 2001 - 2000

Season-to-Date: Summer
(The first Friday in May through Labor Day Weekend)
Data shown for May 6–Jul. 28


#1–100 - #101–200 - #201–277
RowRankMovie Title (click to view)Studio
Gross / TheatersTotal Gross / % of TotalOpen
125The IslandDW$18,356,0373,122$35,818,91351.2%7/22/05
226Bad News BearsPar.$17,032,1193,183$32,868,34951.8%7/22/05
333Hustle and FlowParC$10,560,1491,013$22,202,80947.6%7/22/05
435The Devil's RejectsLions$9,740,1341,757$17,044,98157.1%7/22/05
5118ViruddhUTV$147,64637$327,61545.1%7/22/05
6120Last DaysPicH$137,34112$463,08029.7%7/22/05
7173NovemberSPC$34,0808$192,18617.7%7/22/05
81869 SongsTar.$26,7571$66,85340.0%7/22/05
9201The EdukatorsIFC$16,9872$175,4939.7%7/22/05
10256This Divided StateMino.$2,2501$4,25552.9%7/22/05
11261MonumentalFRun$1,4301$1,430100.0%7/22/05
12262Making GraceFRun$1,4181$1,49694.8%7/20/05
137Charlie and the Chocolate FactoryWB$131,711,1903,790$206,459,07663.8%7/15/05
149Wedding CrashersNL$95,598,9802,925$209,255,92145.7%7/15/05
1580Happy EndingsLions$638,71661$1,315,70148.5%7/15/05
16179The WarriorMira.$31,3064$50,25762.3%7/15/05
17216First MorningIllm.$12,3891$87,26414.2%7/15/05
18225Memories of MurderPalm$10,0331$15,35765.3%7/15/05
19227The ReceptionStrand$9,9321$18,38954.0%7/15/05
20183On the OutsFader$27,7821$49,94055.6%7/13/05
21210Searching for the Wrong-Eyed JesusShad.$13,9953$79,91617.5%7/13/05
22263Return to the Land of WondersArab$1,3381$1,338100.0%7/13/05
238Fantastic Four (2005)Fox$129,344,8913,619$154,696,08083.6%7/8/05
2423Dark WaterBV$24,015,1192,657$25,473,35294.3%7/8/05
2589MurderballThink$317,53626$1,531,15420.7%7/8/05
26112SarabandSPC$176,29512$645,63427.3%7/8/05
27115CronicasPalm$152,58313$300,32250.8%7/8/05
28116The Beautiful CountrySPC$148,85720$442,81333.6%7/8/05
29271Steve + SkyLife$6241$624100.0%7/8/05
3028ReboundFox$15,878,2872,464$16,809,01494.5%7/1/05
3182The Beat That My Heart SkippedWells$537,04333$1,023,42452.5%7/1/05
32165UndeadLions$41,19613$41,196100.0%7/1/05
33196The WorldZeit.$19,6551$64,12330.7%7/1/05
34234Twist of FaithAL$7,4412$8,12991.5%7/1/05
352War of the WorldsPar.$212,888,0253,910$234,280,35490.9%6/29/05
36230A Decent FactoryIcar.$7,9251$7,925100.0%6/29/05
3712BewitchedSony$60,307,6633,188$63,313,15995.3%6/24/05
3824George A. Romero's Land of the DeadUni.$20,339,9952,253$20,700,08298.3%6/24/05
3930March of the PenguinsWIP$12,299,347695$77,437,22315.9%6/24/05
4047RizeLions$3,336,391352$3,336,391100.0%6/24/05
4159PaheliEros$1,409,49968$1,409,499100.0%6/24/05
4299YesSPC$245,23226$396,76061.8%6/24/05
43129Lila SaysIDP$95,2996$121,36578.5%6/24/05
44170Elevator to the Gallows (Re-issue)Rialto$34,6291$263,40413.1%6/24/05
45178Tropical MaladyStrand$31,3222$46,75067.0%6/24/05
46202The Last MogulThink$16,4692$16,469100.0%6/24/05
47222Drivers WantedPill.$10,5141$25,18941.7%6/24/05
48239Tony TakitaniStrand$5,5041$129,7834.2%6/24/05
4911Herbie: Fully LoadedBV$62,004,7533,521$66,023,81693.9%6/22/05
5027The Perfect ManUni.$15,887,2602,090$16,535,00596.1%6/17/05
5156Me and You and Everyone We KnowIFC$2,099,775136$3,885,13454.0%6/17/05
5266My Summer of LoveFocus$941,83163$1,000,91594.1%6/17/05
5367HeightsSPC$932,71366$1,160,81780.3%6/17/05
54141The Talent Given UsVita.$65,8273$65,827100.0%6/17/05
55192Edvard Munch (Re-issue)Shad.$22,9092$43,53952.6%6/17/05
56214The Great WaterPict.$13,3452$17,25777.3%6/17/05
573Batman BeginsWB$193,427,3073,858$205,343,77494.2%6/15/05
585Mr. & Mrs. SmithFox$176,706,9293,451$186,336,27994.8%6/10/05
5917The Adventures of Sharkboy and Lavagirl in 3DDim.$38,169,4082,655$39,177,68497.4%6/10/05
6029The HoneymoonersPar.$12,753,6771,912$12,843,84999.3%6/10/05
6144Howl's Moving CastleBV$4,395,871202$4,711,09693.3%6/10/05
6245High TensionLions$3,681,0661,323$3,681,066100.0%6/10/05
6371ParineetaUTV$802,75850$802,758100.0%6/10/05
641255x2Think$110,8715$128,75286.1%6/10/05
65132The Keeper: The Legend of Omar KhayyamArv.$83,1373$225,86336.8%6/10/05
66158The Bridge of San Luis ReyFL$49,9816$49,981100.0%6/10/05
67163PureIndic.$41,5713$102,47140.6%6/10/05
68212Wild SideWells$13,6872$15,35589.1%6/10/05
69224Slutty SummerEmbr.$10,0961$21,51546.9%6/10/05
70242McLibelLibre$4,3373$4,337100.0%6/10/05
7113Cinderella ManUni.$60,130,7552,820$61,649,91197.5%6/3/05
7232Lords of DogtownSony$11,273,5171,865$11,273,517100.0%6/3/05
7379Apres VousParC$660,66842$830,29279.6%6/3/05
74109Caterina in the Big CityEmp.$196,67610$296,46466.3%6/3/05
75131Deep BlueMira.$86,1855$132,26165.2%6/3/05
76143Rock SchoolPicH$64,31032$64,310100.0%6/3/05
77218Milwaukee, MinnesotaTar.$12,0223$17,52868.6%6/3/05
7818The Sisterhood of the Traveling PantsWB$37,963,6142,583$39,053,06197.2%6/1/05
79189Or (My Treasure)Kino$25,0642$29,19485.9%6/1/05
804MadagascarDW$187,673,5844,142$193,595,52196.9%5/27/05
816The Longest YardPar.$155,563,4193,654$158,119,46098.4%5/27/05
8263Saving FaceSPC$1,047,94056$1,187,26688.3%5/27/05
8365Bunty Aur BabliYash$942,75651$942,756100.0%5/27/05
84154The Ninth DayKino$53,5934$72,88873.5%5/27/05
85184The Two of UsRialto$27,4021$56,55848.4%5/27/05
86197A League of Ordinary GentlemenMagn.$17,8444$18,80794.9%5/27/05
87203GenesisThink$16,4131$16,413100.0%5/27/05
88204SequinsNYer$15,5312$26,04259.6%5/27/05
89205Bomb the SystemPalm$15,5202$15,520100.0%5/27/05
90270Spooky House (Re-issue)Ent.H$6374$637100.0%5/27/05
9198Dominion: Prequel to the ExorcistWB$251,495110$251,495100.0%5/20/05
92187Sex, Politics & CocktailsReg.$26,0872$26,087100.0%5/20/05
93250Stolen ChildhoodsBal.$2,9961$2,996100.0%5/20/05
941Star Wars: Episode III - Revenge of the SithFox$376,507,5943,663$380,270,57799.0%5/19/05
9510Monster-in-LawNL$82,124,8133,424$82,931,30199.0%5/13/05
9614Kicking and ScreamingUni.$52,486,7703,470$52,842,72499.3%5/13/05
9722UnleashedRog.$24,537,6211,962$24,537,621100.0%5/13/05
9837Mad Hot BallroomParC$6,118,626202$8,117,96175.4%5/13/05
9941MindhuntersDim.$4,480,7441,040$4,480,744100.0%5/13/05
10053Layer CakeSPC$2,323,637200$2,339,95799.3%5/13/05
Summary of 277 Movies on Chart:
Totals:$2,568,731,097----
Averages:$9,273,397----
#1–100 - #101–200 - #201–277



2015 - 2014 - 2013 - 2012 - 2011 - 2010 - 2009 - 2008 - 2007 - 2006 - 2005 - 2004 - 2003 - 2002 - 2001 - 2000

Season-to-Date: Summer
(The first Friday in May through Labor Day Weekend)
Data shown for May 6–Jul. 28


Note: Quarter-to-Date data is displayed for CALENDAR GROSSES only, i.e., all movies playing during the above time period and their grosses (or estimated grosses). Click here for a full explanation of the various box office sections.